sensor_id;sensor_type;location;lat;lon;timestamp;pressure;altitude;pressure_sealevel;temperature;humidity
10466;BME280;5280;42.600;23.556;2023-08-20T00:01:47;93665.56;;;22.61;58.70
10466;BME280;5280;42.600;23.556;2023-08-20T00:04:16;93672.69;;;22.69;58.33
10466;BME280;5280;42.600;23.556;2023-08-20T00:06:43;93577.06;;;22.14;58.25
10466;BME280;5280;42.600;23.556;2023-08-20T00:09:14;93637.84;;;22.53;58.46
10466;BME280;5280;42.600;23.556;2023-08-20T00:11:43;93674.84;;;22.73;58.26
10466;BME280;5280;42.600;23.556;2023-08-20T00:14:15;93663.91;;;22.75;58.59
10466;BME280;5280;42.600;23.556;2023-08-20T00:16:42;93659.34;;;22.76;58.36
10466;BME280;5280;42.600;23.556;2023-08-20T00:19:10;93663.69;;;22.62;59.06
10466;BME280;5280;42.600;23.556;2023-08-20T00:21:39;93643.06;;;22.54;58.92
10466;BME280;5280;42.600;23.556;2023-08-20T00:24:08;93673.38;;;22.71;58.87
10466;BME280;5280;42.600;23.556;2023-08-20T00:26:41;93664.06;;;22.59;59.62
10466;BME280;5280;42.600;23.556;2023-08-20T00:29:09;93672.59;;;22.62;59.63
10466;BME280;5280;42.600;23.556;2023-08-20T00:31:35;93597.88;;;22.20;59.14
10466;BME280;5280;42.600;23.556;2023-08-20T00:34:02;93671.00;;;22.68;59.35
10466;BME280;5280;42.600;23.556;2023-08-20T00:36:29;93676.78;;;22.65;59.29
10466;BME280;5280;42.600;23.556;2023-08-20T00:38:56;93662.09;;;22.53;59.50
10466;BME280;5280;42.600;23.556;2023-08-20T00:41:24;93656.81;;;22.45;59.05
10466;BME280;5280;42.600;23.556;2023-08-20T00:43:51;93678.53;;;22.58;59.25
10466;BME280;5280;42.600;23.556;2023-08-20T00:46:19;93683.75;;;22.59;59.62
10466;BME280;5280;42.600;23.556;2023-08-20T00:48:46;93677.41;;;22.67;59.13
10466;BME280;5280;42.600;23.556;2023-08-20T00:51:12;93664.81;;;22.53;59.41
10466;BME280;5280;42.600;23.556;2023-08-20T00:53:39;93635.19;;;22.38;59.65
10466;BME280;5280;42.600;23.556;2023-08-20T00:56:06;93667.88;;;22.64;59.55
10466;BME280;5280;42.600;23.556;2023-08-20T00:58:33;93672.59;;;22.62;59.69
10466;BME280;5280;42.600;23.556;2023-08-20T01:01:00;93677.34;;;22.60;59.68
10466;BME280;5280;42.600;23.556;2023-08-20T01:03:28;93683.09;;;22.57;60.19
10466;BME280;5280;42.600;23.556;2023-08-20T01:06:01;93667.59;;;22.45;60.35
10466;BME280;5280;42.600;23.556;2023-08-20T01:08:37;93655.59;;;22.32;60.60
10466;BME280;5280;42.600;23.556;2023-08-20T01:11:10;93629.06;;;22.15;60.98
10466;BME280;5280;42.600;23.556;2023-08-20T01:13:39;93673.91;;;22.37;61.06
10466;BME280;5280;42.600;23.556;2023-08-20T01:16:05;93677.44;;;22.38;60.75
10466;BME280;5280;42.600;23.556;2023-08-20T01:18:33;93658.41;;;22.24;60.81
10466;BME280;5280;42.600;23.556;2023-08-20T01:21:03;93656.09;;;22.21;61.42
10466;BME280;5280;42.600;23.556;2023-08-20T01:24:01;93653.91;;;22.17;60.83
10466;BME280;5280;42.600;23.556;2023-08-20T01:26:54;93676.78;;;22.21;61.64
10466;BME280;5280;42.600;23.556;2023-08-20T01:29:26;93644.59;;;21.90;62.36
10466;BME280;5280;42.600;23.556;2023-08-20T01:31:54;93636.06;;;21.86;62.19
10466;BME280;5280;42.600;23.556;2023-08-20T01:34:21;93676.41;;;22.09;62.15
10466;BME280;5280;42.600;23.556;2023-08-20T01:36:48;93680.66;;;22.04;62.50
10466;BME280;5280;42.600;23.556;2023-08-20T01:39:15;93675.66;;;22.01;62.18
10466;BME280;5280;42.600;23.556;2023-08-20T01:41:44;93672.34;;;21.90;62.97
10466;BME280;5280;42.600;23.556;2023-08-20T01:44:11;93673.34;;;21.89;63.07
10466;BME280;5280;42.600;23.556;2023-08-20T01:46:39;93685.69;;;21.84;63.79
10466;BME280;5280;42.600;23.556;2023-08-20T01:49:06;93592.31;;;21.32;64.01
10466;BME280;5280;42.600;23.556;2023-08-20T01:51:32;93658.44;;;21.64;64.13
10466;BME280;5280;42.600;23.556;2023-08-20T01:53:59;93669.31;;;21.71;64.69
10466;BME280;5280;42.600;23.556;2023-08-20T01:56:27;93665.03;;;21.62;65.20
10466;BME280;5280;42.600;23.556;2023-08-20T01:58:53;93654.50;;;21.52;65.57
10466;BME280;5280;42.600;23.556;2023-08-20T02:01:20;93647.81;;;21.48;65.99
10466;BME280;5280;42.600;23.556;2023-08-20T02:03:48;93658.69;;;21.55;65.47
10466;BME280;5280;42.600;23.556;2023-08-20T02:06:15;93653.03;;;21.50;65.39
10466;BME280;5280;42.600;23.556;2023-08-20T02:08:42;93652.34;;;21.47;65.70
10466;BME280;5280;42.600;23.556;2023-08-20T02:11:08;93633.78;;;21.38;66.08
10466;BME280;5280;42.600;23.556;2023-08-20T02:13:35;93639.81;;;21.40;66.03
10466;BME280;5280;42.600;23.556;2023-08-20T02:16:03;93648.53;;;21.42;66.21
10466;BME280;5280;42.600;23.556;2023-08-20T02:18:31;93634.28;;;21.41;65.54
10466;BME280;5280;42.600;23.556;2023-08-20T02:20:59;93617.59;;;21.23;66.40
10466;BME280;5280;42.600;23.556;2023-08-20T02:23:26;93633.00;;;21.29;66.58
10466;BME280;5280;42.600;23.556;2023-08-20T02:25:53;93642.88;;;21.37;66.93
10466;BME280;5280;42.600;23.556;2023-08-20T02:28:20;93630.31;;;21.29;67.24
10466;BME280;5280;42.600;23.556;2023-08-20T02:30:50;93629.16;;;21.32;67.85
10466;BME280;5280;42.600;23.556;2023-08-20T02:33:16;93620.09;;;21.25;67.83
10466;BME280;5280;42.600;23.556;2023-08-20T02:35:43;93618.91;;;21.27;66.70
10466;BME280;5280;42.600;23.556;2023-08-20T02:38:11;93631.22;;;21.22;67.59
10466;BME280;5280;42.600;23.556;2023-08-20T02:40:41;93637.91;;;21.26;67.96
10466;BME280;5280;42.600;23.556;2023-08-20T02:43:08;93622.13;;;21.23;68.40
10466;BME280;5280;42.600;23.556;2023-08-20T02:45:40;93629.91;;;21.18;68.01
10466;BME280;5280;42.600;23.556;2023-08-20T02:48:07;93638.47;;;21.13;68.28
10466;BME280;5280;42.600;23.556;2023-08-20T02:50:34;93636.78;;;21.12;68.22
10466;BME280;5280;42.600;23.556;2023-08-20T02:53:01;93635.47;;;21.08;68.44
10466;BME280;5280;42.600;23.556;2023-08-20T02:55:30;93639.47;;;21.12;68.89
10466;BME280;5280;42.600;23.556;2023-08-20T02:57:57;93637.16;;;21.09;68.65
10466;BME280;5280;42.600;23.556;2023-08-20T03:00:23;93638.38;;;21.07;68.62
10466;BME280;5280;42.600;23.556;2023-08-20T03:02:50;93634.16;;;21.04;68.43
10466;BME280;5280;42.600;23.556;2023-08-20T03:05:17;93596.09;;;20.70;69.18
10466;BME280;5280;42.600;23.556;2023-08-20T03:07:44;93639.28;;;20.91;69.63
10466;BME280;5280;42.600;23.556;2023-08-20T03:10:11;93633.66;;;20.78;69.98
10466;BME280;5280;42.600;23.556;2023-08-20T03:12:39;93542.44;;;20.23;69.50
10466;BME280;5280;42.600;23.556;2023-08-20T03:15:07;93647.22;;;20.84;69.54
10466;BME280;5280;42.600;23.556;2023-08-20T03:17:34;93645.53;;;20.83;69.92
10466;BME280;5280;42.600;23.556;2023-08-20T03:20:01;93656.28;;;20.83;69.65
10466;BME280;5280;42.600;23.556;2023-08-20T03:22:31;93637.31;;;20.85;68.87
10466;BME280;5280;42.600;23.556;2023-08-20T03:24:58;93654.44;;;20.84;69.10
10466;BME280;5280;42.600;23.556;2023-08-20T03:27:26;93643.84;;;20.82;69.42
10466;BME280;5280;42.600;23.556;2023-08-20T03:29:54;93624.47;;;20.72;68.71
10466;BME280;5280;42.600;23.556;2023-08-20T03:32:21;93585.97;;;20.49;69.18
10466;BME280;5280;42.600;23.556;2023-08-20T03:34:47;93630.63;;;20.81;68.63
10466;BME280;5280;42.600;23.556;2023-08-20T03:37:14;93627.50;;;20.69;69.15
10466;BME280;5280;42.600;23.556;2023-08-20T03:39:41;93644.91;;;20.81;69.13
10466;BME280;5280;42.600;23.556;2023-08-20T03:42:08;93636.53;;;20.76;69.60
10466;BME280;5280;42.600;23.556;2023-08-20T03:44:35;93617.28;;;20.65;70.22
10466;BME280;5280;42.600;23.556;2023-08-20T03:47:03;93599.91;;;20.44;70.54
10466;BME280;5280;42.600;23.556;2023-08-20T03:49:30;93625.16;;;20.66;70.35
10466;BME280;5280;42.600;23.556;2023-08-20T03:51:56;93638.53;;;20.74;70.24
10466;BME280;5280;42.600;23.556;2023-08-20T03:54:23;93633.16;;;20.74;70.27
10466;BME280;5280;42.600;23.556;2023-08-20T03:56:50;93633.34;;;20.73;70.88
10466;BME280;5280;42.600;23.556;2023-08-20T03:59:16;93646.75;;;20.73;71.08
10466;BME280;5280;42.600;23.556;2023-08-20T04:01:43;93637.69;;;20.74;70.63
10466;BME280;5280;42.600;23.556;2023-08-20T04:04:14;93623.13;;;20.68;71.24
10466;BME280;5280;42.600;23.556;2023-08-20T04:06:40;93607.22;;;20.58;71.28
10466;BME280;5280;42.600;23.556;2023-08-20T04:09:07;93632.00;;;20.77;71.22
10466;BME280;5280;42.600;23.556;2023-08-20T04:11:34;93627.78;;;20.74;71.65
10466;BME280;5280;42.600;23.556;2023-08-20T04:14:01;93628.94;;;20.80;71.41
10466;BME280;5280;42.600;23.556;2023-08-20T04:16:29;93639.53;;;20.81;71.60
10466;BME280;5280;42.600;23.556;2023-08-20T04:18:56;93626.25;;;20.80;72.07
10466;BME280;5280;42.600;23.556;2023-08-20T04:21:24;93621.25;;;20.77;72.24
10466;BME280;5280;42.600;23.556;2023-08-20T04:23:51;93630.72;;;20.87;73.04
10466;BME280;5280;42.600;23.556;2023-08-20T04:26:17;93616.34;;;20.80;73.34
10466;BME280;5280;42.600;23.556;2023-08-20T04:28:44;93594.25;;;20.70;73.88
10466;BME280;5280;42.600;23.556;2023-08-20T04:31:11;93624.50;;;20.95;73.72
10466;BME280;5280;42.600;23.556;2023-08-20T04:33:37;93632.16;;;21.06;73.15
10466;BME280;5280;42.600;23.556;2023-08-20T04:36:05;93611.53;;;20.98;74.01
10466;BME280;5280;42.600;23.556;2023-08-20T04:38:33;93635.78;;;21.21;73.71
10466;BME280;5280;42.600;23.556;2023-08-20T04:40:59;93632.63;;;21.32;72.96
10466;BME280;5280;42.600;23.556;2023-08-20T04:43:26;93617.47;;;21.39;72.36
10466;BME280;5280;42.600;23.556;2023-08-20T04:45:53;93630.25;;;21.60;72.09
10466;BME280;5280;42.600;23.556;2023-08-20T04:48:19;93622.91;;;21.69;71.81
10466;BME280;5280;42.600;23.556;2023-08-20T04:50:47;93625.47;;;21.85;71.63
10466;BME280;5280;42.600;23.556;2023-08-20T04:53:13;93623.78;;;21.84;71.48
10466;BME280;5280;42.600;23.556;2023-08-20T04:55:41;93637.00;;;21.94;71.79
10466;BME280;5280;42.600;23.556;2023-08-20T04:58:08;93611.63;;;21.88;72.55
10466;BME280;5280;42.600;23.556;2023-08-20T05:00:35;93611.22;;;21.99;71.67
10466;BME280;5280;42.600;23.556;2023-08-20T05:03:01;93611.78;;;22.09;70.85
10466;BME280;5280;42.600;23.556;2023-08-20T05:05:28;93630.91;;;22.29;71.26
10466;BME280;5280;42.600;23.556;2023-08-20T05:07:55;93631.91;;;22.43;70.60
10466;BME280;5280;42.600;23.556;2023-08-20T05:10:22;93631.63;;;22.67;70.92
10466;BME280;5280;42.600;23.556;2023-08-20T05:12:49;93636.19;;;22.81;68.98
10466;BME280;5280;42.600;23.556;2023-08-20T05:15:16;93609.59;;;22.78;69.13
10466;BME280;5280;42.600;23.556;2023-08-20T05:17:43;93637.06;;;23.03;68.49
10466;BME280;5280;42.600;23.556;2023-08-20T05:20:10;93635.34;;;23.16;65.92
10466;BME280;5280;42.600;23.556;2023-08-20T05:22:37;93640.50;;;23.33;65.39
10466;BME280;5280;42.600;23.556;2023-08-20T05:25:04;93632.47;;;23.39;65.92
10466;BME280;5280;42.600;23.556;2023-08-20T05:27:31;93653.88;;;23.62;64.84
10466;BME280;5280;42.600;23.556;2023-08-20T05:29:59;93642.13;;;23.70;64.91
10466;BME280;5280;42.600;23.556;2023-08-20T05:32:28;93645.53;;;23.78;66.04
10466;BME280;5280;42.600;23.556;2023-08-20T05:34:55;93655.75;;;23.83;65.26
10466;BME280;5280;42.600;23.556;2023-08-20T05:37:22;93646.38;;;23.79;64.66
10466;BME280;5280;42.600;23.556;2023-08-20T05:39:48;93637.38;;;23.72;64.54
10466;BME280;5280;42.600;23.556;2023-08-20T05:42:15;93658.69;;;23.88;66.37
10466;BME280;5280;42.600;23.556;2023-08-20T05:44:42;93653.09;;;23.89;65.93
10466;BME280;5280;42.600;23.556;2023-08-20T05:47:10;93660.63;;;23.94;66.63
10466;BME280;5280;42.600;23.556;2023-08-20T05:49:37;93662.47;;;23.93;65.67
10466;BME280;5280;42.600;23.556;2023-08-20T05:52:04;93638.09;;;23.80;65.88
10466;BME280;5280;42.600;23.556;2023-08-20T05:54:30;93639.28;;;23.78;66.45
10466;BME280;5280;42.600;23.556;2023-08-20T05:56:57;93641.66;;;23.66;63.72
10466;BME280;5280;42.600;23.556;2023-08-20T05:59:25;93669.94;;;23.91;64.14
10466;BME280;5280;42.600;23.556;2023-08-20T06:01:52;93567.66;;;23.33;64.95
10466;BME280;5280;42.600;23.556;2023-08-20T06:04:21;93664.75;;;23.90;65.58
10466;BME280;5280;42.600;23.556;2023-08-20T06:06:47;93654.66;;;23.77;65.74
10466;BME280;5280;42.600;23.556;2023-08-20T06:09:14;93667.38;;;23.83;66.11
10466;BME280;5280;42.600;23.556;2023-08-20T06:11:41;93641.66;;;23.66;67.28
10466;BME280;5280;42.600;23.556;2023-08-20T06:14:08;93652.16;;;23.76;68.54
10466;BME280;5280;42.600;23.556;2023-08-20T06:16:34;93665.69;;;23.82;68.03
10466;BME280;5280;42.600;23.556;2023-08-20T06:19:01;93655.06;;;23.74;71.26
10466;BME280;5280;42.600;23.556;2023-08-20T06:21:29;93655.41;;;23.71;67.59
10466;BME280;5280;42.600;23.556;2023-08-20T06:23:56;93669.56;;;23.73;69.46
10466;BME280;5280;42.600;23.556;2023-08-20T06:26:23;93666.63;;;23.68;68.91
10466;BME280;5280;42.600;23.556;2023-08-20T06:28:49;93677.28;;;23.76;70.78
10466;BME280;5280;42.600;23.556;2023-08-20T06:31:16;93631.34;;;23.48;70.17
10466;BME280;5280;42.600;23.556;2023-08-20T06:33:43;93679.59;;;23.79;70.06
10466;BME280;5280;42.600;23.556;2023-08-20T06:36:09;93672.28;;;23.73;71.59
10466;BME280;5280;42.600;23.556;2023-08-20T06:38:40;93680.47;;;23.86;71.00
10466;BME280;5280;42.600;23.556;2023-08-20T06:41:07;93681.78;;;23.90;70.70
10466;BME280;5280;42.600;23.556;2023-08-20T06:43:34;93658.00;;;23.79;71.16
10466;BME280;5280;42.600;23.556;2023-08-20T06:46:09;93688.13;;;24.04;70.70
10466;BME280;5280;42.600;23.556;2023-08-20T06:48:51;93688.56;;;24.08;70.50
10466;BME280;5280;42.600;23.556;2023-08-20T06:51:19;93682.72;;;24.04;69.75
10466;BME280;5280;42.600;23.556;2023-08-20T06:53:47;93680.63;;;24.06;68.41
10466;BME280;5280;42.600;23.556;2023-08-20T06:56:14;93694.81;;;24.08;69.44
10466;BME280;5280;42.600;23.556;2023-08-20T06:58:42;93666.59;;;23.89;69.28
10466;BME280;5280;42.600;23.556;2023-08-20T07:01:09;93688.44;;;24.16;67.80
10466;BME280;5280;42.600;23.556;2023-08-20T07:03:39;93691.41;;;24.21;65.79
10466;BME280;5280;42.600;23.556;2023-08-20T07:06:06;93684.81;;;24.30;64.52
10466;BME280;5280;42.600;23.556;2023-08-20T07:08:34;93683.56;;;24.26;60.93
10466;BME280;5280;42.600;23.556;2023-08-20T07:11:03;93687.63;;;24.43;61.64
10466;BME280;5280;42.600;23.556;2023-08-20T07:13:29;93692.97;;;24.64;59.25
10466;BME280;5280;42.600;23.556;2023-08-20T07:15:56;93684.13;;;24.83;57.25
10466;BME280;5280;42.600;23.556;2023-08-20T07:18:23;93692.81;;;25.13;55.16
10466;BME280;5280;42.600;23.556;2023-08-20T07:20:50;93693.94;;;25.32;54.35
10466;BME280;5280;42.600;23.556;2023-08-20T07:23:17;93693.97;;;25.52;52.47
10466;BME280;5280;42.600;23.556;2023-08-20T07:25:43;93699.09;;;25.75;52.85
10466;BME280;5280;42.600;23.556;2023-08-20T07:28:12;93698.28;;;25.94;52.23
10466;BME280;5280;42.600;23.556;2023-08-20T07:30:39;93682.88;;;26.14;51.60
10466;BME280;5280;42.600;23.556;2023-08-20T07:33:07;93687.88;;;26.37;50.26
10466;BME280;5280;42.600;23.556;2023-08-20T07:35:33;93686.22;;;26.49;50.11
10466;BME280;5280;42.600;23.556;2023-08-20T07:38:01;93634.31;;;26.32;50.10
10466;BME280;5280;42.600;23.556;2023-08-20T07:40:28;93645.75;;;26.54;49.79
10466;BME280;5280;42.600;23.556;2023-08-20T07:42:58;93694.50;;;26.93;48.55
10466;BME280;5280;42.600;23.556;2023-08-20T07:45:26;93689.25;;;27.05;47.35
10466;BME280;5280;42.600;23.556;2023-08-20T07:47:52;93682.31;;;27.16;47.25
10466;BME280;5280;42.600;23.556;2023-08-20T07:50:19;93688.94;;;27.33;47.42
10466;BME280;5280;42.600;23.556;2023-08-20T07:52:46;93660.97;;;27.26;46.67
10466;BME280;5280;42.600;23.556;2023-08-20T07:55:13;93684.91;;;27.49;45.45
10466;BME280;5280;42.600;23.556;2023-08-20T07:57:40;93613.63;;;27.15;43.60
10466;BME280;5280;42.600;23.556;2023-08-20T08:00:07;93685.47;;;27.64;44.82
10466;BME280;5280;42.600;23.556;2023-08-20T08:02:35;93664.16;;;27.61;44.35
10466;BME280;5280;42.600;23.556;2023-08-20T08:05:04;93650.16;;;27.64;41.63
10466;BME280;5280;42.600;23.556;2023-08-20T08:07:31;93690.91;;;27.95;42.69
10466;BME280;5280;42.600;23.556;2023-08-20T08:09:58;93677.25;;;28.08;43.29
10466;BME280;5280;42.600;23.556;2023-08-20T08:12:25;93629.66;;;27.99;40.93
10466;BME280;5280;42.600;23.556;2023-08-20T08:14:52;93620.00;;;28.03;41.67
10466;BME280;5280;42.600;23.556;2023-08-20T08:17:19;93677.44;;;28.63;41.24
10466;BME280;5280;42.600;23.556;2023-08-20T08:19:47;93681.72;;;28.77;40.60
10466;BME280;5280;42.600;23.556;2023-08-20T08:22:14;93687.84;;;28.91;39.98
10466;BME280;5280;42.600;23.556;2023-08-20T08:24:40;93663.50;;;28.78;39.87
10466;BME280;5280;42.600;23.556;2023-08-20T08:27:08;93664.81;;;28.93;40.04
10466;BME280;5280;42.600;23.556;2023-08-20T08:29:35;93683.88;;;29.12;39.78
10466;BME280;5280;42.600;23.556;2023-08-20T08:32:02;93677.66;;;29.23;37.61
10466;BME280;5280;42.600;23.556;2023-08-20T08:34:29;93687.41;;;29.30;37.11
10466;BME280;5280;42.600;23.556;2023-08-20T08:36:57;93672.22;;;29.41;37.74
10466;BME280;5280;42.600;23.556;2023-08-20T08:39:24;93687.25;;;29.62;37.39
10466;BME280;5280;42.600;23.556;2023-08-20T08:41:55;93664.13;;;29.52;36.19
10466;BME280;5280;42.600;23.556;2023-08-20T08:44:25;93681.88;;;29.73;36.40
10466;BME280;5280;42.600;23.556;2023-08-20T08:46:52;93687.69;;;29.77;34.30
10466;BME280;5280;42.600;23.556;2023-08-20T08:49:19;93679.94;;;29.92;34.67
10466;BME280;5280;42.600;23.556;2023-08-20T08:51:46;93647.78;;;29.82;33.03
10466;BME280;5280;42.600;23.556;2023-08-20T08:54:15;93664.00;;;30.07;34.78
10466;BME280;5280;42.600;23.556;2023-08-20T08:56:42;93627.47;;;29.97;34.70
10466;BME280;5280;42.600;23.556;2023-08-20T08:59:08;93673.78;;;30.38;35.51
10466;BME280;5280;42.600;23.556;2023-08-20T09:01:38;93684.50;;;30.51;34.92
10466;BME280;5280;42.600;23.556;2023-08-20T09:04:05;93665.94;;;30.30;34.50
10466;BME280;5280;42.600;23.556;2023-08-20T09:06:44;93681.41;;;30.59;35.71
10466;BME280;5280;42.600;23.556;2023-08-20T09:09:12;93672.03;;;30.55;34.69
10466;BME280;5280;42.600;23.556;2023-08-20T09:11:40;93658.06;;;30.52;34.41
10466;BME280;5280;42.600;23.556;2023-08-20T09:14:07;93671.59;;;30.82;35.99
10466;BME280;5280;42.600;23.556;2023-08-20T09:16:33;93660.44;;;30.71;34.75
10466;BME280;5280;42.600;23.556;2023-08-20T09:19:00;93678.94;;;30.93;35.03
10466;BME280;5280;42.600;23.556;2023-08-20T09:21:28;93677.53;;;31.02;34.41
10466;BME280;5280;42.600;23.556;2023-08-20T09:23:55;93665.31;;;30.93;34.59
10466;BME280;5280;42.600;23.556;2023-08-20T09:26:22;93693.22;;;31.18;34.46
10466;BME280;5280;42.600;23.556;2023-08-20T09:28:50;93679.56;;;31.18;33.78
10466;BME280;5280;42.600;23.556;2023-08-20T09:31:17;93686.44;;;31.20;34.47
10466;BME280;5280;42.600;23.556;2023-08-20T09:33:50;93682.63;;;31.22;34.88
10466;BME280;5280;42.600;23.556;2023-08-20T09:36:17;93672.38;;;31.29;34.72
10466;BME280;5280;42.600;23.556;2023-08-20T09:38:44;93679.28;;;31.31;34.29
10466;BME280;5280;42.600;23.556;2023-08-20T09:41:12;93665.41;;;31.33;34.55
10466;BME280;5280;42.600;23.556;2023-08-20T09:43:39;93671.28;;;31.53;33.88
10466;BME280;5280;42.600;23.556;2023-08-20T09:46:10;93657.75;;;31.46;33.11
10466;BME280;5280;42.600;23.556;2023-08-20T09:48:41;93677.13;;;31.56;32.75
10466;BME280;5280;42.600;23.556;2023-08-20T09:51:10;93662.13;;;31.59;32.90
10466;BME280;5280;42.600;23.556;2023-08-20T09:53:45;93621.78;;;31.38;32.77
10466;BME280;5280;42.600;23.556;2023-08-20T09:56:20;93642.53;;;31.62;33.28
10466;BME280;5280;42.600;23.556;2023-08-20T09:58:49;93592.38;;;31.28;33.49
10466;BME280;5280;42.600;23.556;2023-08-20T10:01:18;93669.44;;;31.82;33.22
10466;BME280;5280;42.600;23.556;2023-08-20T10:03:45;93650.97;;;31.60;32.28
10466;BME280;5280;42.600;23.556;2023-08-20T10:06:15;93667.69;;;31.64;33.10
10466;BME280;5280;42.600;23.556;2023-08-20T10:08:44;93667.72;;;31.52;32.97
10466;BME280;5280;42.600;23.556;2023-08-20T10:11:12;93652.03;;;31.59;32.85
10466;BME280;5280;42.600;23.556;2023-08-20T10:13:39;93624.34;;;31.44;33.51
10466;BME280;5280;42.600;23.556;2023-08-20T10:16:06;93673.56;;;31.84;32.58
10466;BME280;5280;42.600;23.556;2023-08-20T10:18:36;93657.47;;;31.71;33.63
10466;BME280;5280;42.600;23.556;2023-08-20T10:21:04;93674.38;;;31.85;33.55
10466;BME280;5280;42.600;23.556;2023-08-20T10:23:33;93668.81;;;31.80;32.67
10466;BME280;5280;42.600;23.556;2023-08-20T10:26:07;93651.84;;;31.78;33.20
10466;BME280;5280;42.600;23.556;2023-08-20T10:28:37;93659.22;;;31.77;33.80
10466;BME280;5280;42.600;23.556;2023-08-20T10:31:08;93664.94;;;31.76;32.84
10466;BME280;5280;42.600;23.556;2023-08-20T10:33:49;93660.91;;;31.55;33.65
10466;BME280;5280;42.600;23.556;2023-08-20T10:36:17;93644.31;;;31.45;33.52
10466;BME280;5280;42.600;23.556;2023-08-20T10:38:48;93648.91;;;31.56;34.08
10466;BME280;5280;42.600;23.556;2023-08-20T10:41:15;93660.72;;;31.56;33.62
10466;BME280;5280;42.600;23.556;2023-08-20T10:43:46;93654.88;;;31.53;33.47
10466;BME280;5280;42.600;23.556;2023-08-20T10:46:15;93652.53;;;31.56;33.75
10466;BME280;5280;42.600;23.556;2023-08-20T10:48:53;93634.13;;;31.40;32.80
10466;BME280;5280;42.600;23.556;2023-08-20T10:51:25;93621.81;;;31.26;32.71
10466;BME280;5280;42.600;23.556;2023-08-20T10:54:06;93653.03;;;31.30;32.79
10466;BME280;5280;42.600;23.556;2023-08-20T10:56:41;93643.88;;;31.36;33.01
10466;BME280;5280;42.600;23.556;2023-08-20T10:59:16;93577.94;;;30.93;32.62
10466;BME280;5280;42.600;23.556;2023-08-20T11:01:45;93570.09;;;30.96;33.28
10466;BME280;5280;42.600;23.556;2023-08-20T11:04:18;93550.53;;;30.88;32.89
10466;BME280;5280;42.600;23.556;2023-08-20T11:06:52;93599.84;;;31.21;32.26
10466;BME280;5280;42.600;23.556;2023-08-20T11:09:29;93559.28;;;30.90;32.05
10466;BME280;5280;42.600;23.556;2023-08-20T11:12:02;93605.22;;;31.16;32.36
10466;BME280;5280;42.600;23.556;2023-08-20T11:14:33;93624.16;;;31.34;32.32
10466;BME280;5280;42.600;23.556;2023-08-20T11:17:01;93611.69;;;31.38;32.47
10466;BME280;5280;42.600;23.556;2023-08-20T11:19:30;93583.50;;;31.09;31.93
10466;BME280;5280;42.600;23.556;2023-08-20T11:21:57;93575.56;;;31.08;32.36
10466;BME280;5280;42.600;23.556;2023-08-20T11:24:28;93621.06;;;31.42;32.47
10466;BME280;5280;42.600;23.556;2023-08-20T11:26:58;93610.25;;;31.36;33.06
10466;BME280;5280;42.600;23.556;2023-08-20T11:29:25;93539.72;;;30.93;33.13
10466;BME280;5280;42.600;23.556;2023-08-20T11:31:54;93545.63;;;30.90;32.76
10466;BME280;5280;42.600;23.556;2023-08-20T11:34:26;93568.03;;;31.15;32.73
10466;BME280;5280;42.600;23.556;2023-08-20T11:36:56;93531.75;;;30.91;31.94
10466;BME280;5280;42.600;23.556;2023-08-20T11:39:23;93541.22;;;31.00;32.91
10466;BME280;5280;42.600;23.556;2023-08-20T11:41:58;93549.78;;;31.04;32.74
10466;BME280;5280;42.600;23.556;2023-08-20T11:44:42;93610.56;;;31.51;33.26
10466;BME280;5280;42.600;23.556;2023-08-20T11:47:16;93526.50;;;31.01;32.60
10466;BME280;5280;42.600;23.556;2023-08-20T11:50:15;93602.59;;;31.49;32.66
10466;BME280;5280;42.600;23.556;2023-08-20T11:52:46;93598.69;;;31.45;32.58
10466;BME280;5280;42.600;23.556;2023-08-20T11:55:24;93562.22;;;31.23;32.56
10466;BME280;5280;42.600;23.556;2023-08-20T11:58:02;93516.53;;;30.95;32.32
10466;BME280;5280;42.600;23.556;2023-08-20T12:00:42;93530.44;;;31.05;31.66
10466;BME280;5280;42.600;23.556;2023-08-20T12:03:17;93558.88;;;31.21;32.27
10466;BME280;5280;42.600;23.556;2023-08-20T12:05:58;93525.56;;;30.96;33.16
10466;BME280;5280;42.600;23.556;2023-08-20T12:08:27;93538.84;;;31.04;32.36
10466;BME280;5280;42.600;23.556;2023-08-20T12:10:58;93544.41;;;31.09;32.72
10466;BME280;5280;42.600;23.556;2023-08-20T12:13:29;93566.97;;;31.16;33.07
10466;BME280;5280;42.600;23.556;2023-08-20T12:15:59;93519.28;;;30.84;33.32
10466;BME280;5280;42.600;23.556;2023-08-20T12:18:33;93559.13;;;31.19;33.08
10466;BME280;5280;42.600;23.556;2023-08-20T12:21:30;93550.59;;;31.16;33.07
10466;BME280;5280;42.600;23.556;2023-08-20T12:24:22;93522.84;;;31.07;33.19
10466;BME280;5280;42.600;23.556;2023-08-20T12:26:56;93583.13;;;31.46;33.09
10466;BME280;5280;42.600;23.556;2023-08-20T12:29:42;93587.78;;;31.45;33.38
10466;BME280;5280;42.600;23.556;2023-08-20T12:32:15;93567.69;;;31.23;33.31
10466;BME280;5280;42.600;23.556;2023-08-20T12:34:42;93594.69;;;31.36;32.79
10466;BME280;5280;42.600;23.556;2023-08-20T12:37:10;93584.94;;;31.40;32.93
10466;BME280;5280;42.600;23.556;2023-08-20T12:39:39;93545.63;;;31.13;33.30
10466;BME280;5280;42.600;23.556;2023-08-20T12:42:07;93510.41;;;30.88;33.22
10466;BME280;5280;42.600;23.556;2023-08-20T12:44:34;93541.72;;;30.97;33.10
10466;BME280;5280;42.600;23.556;2023-08-20T12:47:00;93565.66;;;31.18;32.96
10466;BME280;5280;42.600;23.556;2023-08-20T12:49:29;93512.09;;;30.77;32.99
10466;BME280;5280;42.600;23.556;2023-08-20T12:52:13;93565.31;;;31.15;33.05
10466;BME280;5280;42.600;23.556;2023-08-20T12:54:42;93520.28;;;30.77;32.82
10466;BME280;5280;42.600;23.556;2023-08-20T12:57:09;93547.31;;;31.02;32.82
10466;BME280;5280;42.600;23.556;2023-08-20T12:59:36;93504.34;;;30.86;32.59
10466;BME280;5280;42.600;23.556;2023-08-20T13:02:02;93580.94;;;31.31;32.35
10466;BME280;5280;42.600;23.556;2023-08-20T13:04:30;93570.97;;;31.25;32.60
10466;BME280;5280;42.600;23.556;2023-08-20T13:06:57;93536.13;;;31.04;32.26
10466;BME280;5280;42.600;23.556;2023-08-20T13:09:24;93532.84;;;31.02;32.36